Time;durP1;ratioP1;P1;durP2;ratioP2;P2;SDS_P1;SDS_P2;PMS_P1;PMS_P2;Temp;Humidity;BMP_temperature;BMP_pressure;BME280_temperature;BME280_humidity;BME280_pressure;Samples;Min_cycle;Max_cycle;Signal;HPM_P1;HPM_P2
2021/06/13 00:01:26;;;;;;;;;;;;;;;26.68;42.42;101363.66;4958411;28;1395;-73
2021/06/13 00:03:53;;;;;;;;;;;;;;;26.67;40.92;101353.94;4967673;28;1970;-73
2021/06/13 00:06:20;;;;;;;;;;;;;;;26.67;41.69;101356.59;4969468;28;1158;-73
2021/06/13 00:08:47;;;;;;;;;;;;;;;26.66;40.13;101349.56;4951694;28;1286;-73
2021/06/13 00:11:13;;;;;;;;;;;;;;;26.69;41.00;101350.16;4969366;28;883;-73
2021/06/13 00:13:40;;;;;;;;;;;;;;;26.66;41.73;101344.22;4967496;28;1304;-73
2021/06/13 00:16:08;;;;;;;;;;;;;;;26.66;40.50;101349.56;4949886;28;1111;-74
2021/06/13 00:18:35;;;;;;;;;;;;;;;26.63;41.55;101346.16;4948220;28;1218;-74
2021/06/13 00:21:02;;;;;;;;;;;;;;;26.59;40.77;101344.72;4949514;28;1080;-73
2021/06/13 00:23:29;;;;;;;;;;;;;;;26.60;40.79;101343.72;4949624;28;2097;-73
2021/06/13 00:26:16;;;;;;;;;;;;;;;26.61;40.21;101347.25;4948942;28;1173;-73
2021/06/13 00:28:43;;;;;;;;;;;;;;;26.67;40.48;101351.25;4949423;28;1245;-72
2021/06/13 00:31:10;;;;;;;;;;;;;;;26.73;40.52;101356.09;4949649;28;1099;-72
2021/06/13 00:33:37;;;;;;;;;;;;;;;26.75;40.36;101360.34;4949620;28;1249;-70
2021/06/13 00:36:04;;;;;;;;;;;;;;;26.69;41.60;101349.31;4949668;28;1258;-71
2021/06/13 00:38:31;;;;;;;;;;;;;;;26.65;41.39;101342.53;4949774;28;1318;-69
2021/06/13 00:40:57;;;;;;;;;;;;;;;26.62;41.18;101348.97;4949135;28;1099;-71
2021/06/13 00:43:24;;;;;;;;;;;;;;;26.61;41.84;101345.44;4947501;28;1985;-69
2021/06/13 00:45:51;;;;;;;;;;;;;;;26.63;40.68;101340.81;4949459;28;1424;-68
2021/06/13 00:48:17;;;;;;;;;;;;;;;26.66;40.63;101338.88;4949210;28;1621;-69
2021/06/13 00:50:52;;;;;;;;;;;;;;;26.66;40.85;101338.88;4949126;28;1140;-71
2021/06/13 00:53:20;;;;;;;;;;;;;;;26.67;40.65;101343.25;4948988;29;1189;-71
2021/06/13 00:55:47;;;;;;;;;;;;;;;26.69;41.02;101341.31;4949143;28;1092;-70
2021/06/13 00:58:14;;;;;;;;;;;;;;;26.71;41.07;101336.69;4947429;28;1371;-70
2021/06/13 01:00:43;;;;;;;;;;;;;;;26.63;42.30;101332.78;4947745;28;1145;-69
2021/06/13 01:03:10;;;;;;;;;;;;;;;26.66;41.16;101328.19;4949094;28;1911;-69
2021/06/13 01:05:37;;;;;;;;;;;;;;;26.60;41.71;101325.03;4947279;28;1309;-69
2021/06/13 01:08:07;;;;;;;;;;;;;;;26.57;42.80;101321.75;4947266;28;1340;-69
2021/06/13 01:10:46;;;;;;;;;;;;;;;26.52;41.46;101316.78;4947251;28;1024;-68
2021/06/13 01:13:12;;;;;;;;;;;;;;;26.53;42.19;101317.66;4947640;28;1312;-69
2021/06/13 01:15:44;;;;;;;;;;;;;;;26.55;42.59;101315.69;4948863;28;1122;-68
2021/06/13 01:18:24;;;;;;;;;;;;;;;26.59;41.36;101314.47;4947611;28;1242;-68
2021/06/13 01:20:52;;;;;;;;;;;;;;;26.65;41.37;101315.81;4948546;29;1020;-69
2021/06/13 01:23:34;;;;;;;;;;;;;;;26.60;41.13;101319.69;4947146;28;1899;-68
2021/06/13 01:26:22;;;;;;;;;;;;;;;26.61;41.47;101315.19;4947200;28;1148;-69
2021/06/13 01:28:55;;;;;;;;;;;;;;;26.53;43.00;101321.19;4947150;29;850;-67
2021/06/13 01:31:31;;;;;;;;;;;;;;;26.51;41.34;101317.75;4948545;28;1371;-69
2021/06/13 01:34:01;;;;;;;;;;;;;;;26.55;41.45;101305.84;4948635;29;897;-69
2021/06/13 01:36:29;;;;;;;;;;;;;;;26.58;41.08;101310.09;4948663;29;1327;-69
2021/06/13 01:38:56;;;;;;;;;;;;;;;26.60;41.64;101305.47;4946523;28;985;-69
2021/06/13 01:41:25;;;;;;;;;;;;;;;26.59;42.12;101303.78;4947052;28;1277;-69
2021/06/13 01:43:54;;;;;;;;;;;;;;;26.55;41.16;101310.34;4948569;28;1910;-69
2021/06/13 01:46:26;;;;;;;;;;;;;;;26.59;40.28;101307.31;4948549;28;1439;-69
2021/06/13 01:48:53;;;;;;;;;;;;;;;26.58;39.61;101307.44;4948504;28;814;-69
2021/06/13 01:51:21;;;;;;;;;;;;;;;26.60;40.69;101313.47;4948070;28;1011;-69
2021/06/13 01:53:49;;;;;;;;;;;;;;;26.61;39.45;101310.72;4948809;28;739;-70
2021/06/13 01:56:17;;;;;;;;;;;;;;;26.58;40.51;101321.66;4931042;28;1101;-70
2021/06/13 01:58:45;;;;;;;;;;;;;;;26.56;40.31;101328.94;4948143;28;1344;-69
2021/06/13 02:01:18;;;;;;;;;;;;;;;26.56;41.59;101330.75;4930971;28;1376;-69
2021/06/13 02:03:47;;;;;;;;;;;;;;;26.52;40.31;101327.47;4948151;28;2001;-69
2021/06/13 02:06:15;;;;;;;;;;;;;;;26.53;40.85;101329.19;4947828;28;1042;-69
2021/06/13 02:08:44;;;;;;;;;;;;;;;26.51;40.72;101325.78;4948245;28;1276;-71
2021/06/13 02:11:11;;;;;;;;;;;;;;;26.51;41.24;101323.09;4948274;28;1091;-71
2021/06/13 02:13:38;;;;;;;;;;;;;;;26.55;41.08;101323.72;4948110;28;1311;-71
2021/06/13 02:16:08;;;;;;;;;;;;;;;26.57;40.63;101319.94;4948184;28;1061;-70
2021/06/13 02:18:35;;;;;;;;;;;;;;;26.60;40.14;101313.47;4947929;28;1292;-71
2021/06/13 02:21:04;;;;;;;;;;;;;;;26.60;39.76;101309.00;4946510;28;1375;-71
2021/06/13 02:23:31;;;;;;;;;;;;;;;26.61;38.81;101310.72;4946346;28;1922;-70
2021/06/13 02:25:58;;;;;;;;;;;;;;;26.60;38.90;101319.69;4947892;28;1069;-69
2021/06/13 02:28:26;;;;;;;;;;;;;;;26.60;39.12;101311.66;4930390;28;1416;-70
2021/06/13 02:30:54;;;;;;;;;;;;;;;26.60;38.65;101319.69;4946978;28;1004;-69
2021/06/13 02:33:22;;;;;;;;;;;;;;;26.60;40.12;101308.16;4948044;28;1308;-69
2021/06/13 02:35:53;;;;;;;;;;;;;;;26.59;39.62;101312.66;4947910;28;1121;-69
2021/06/13 02:38:21;;;;;;;;;;;;;;;26.58;40.02;101305.59;4946997;28;1269;-69
2021/06/13 02:40:48;;;;;;;;;;;;;;;26.58;39.86;101302.94;4946314;28;1047;-70
2021/06/13 02:43:15;;;;;;;;;;;;;;;26.56;38.88;101304.03;4945982;28;1966;-69
2021/06/13 02:45:41;;;;;;;;;;;;;;;26.57;38.47;101306.56;4947666;28;1038;-69
2021/06/13 02:48:08;;;;;;;;;;;;;;;26.58;39.00;101299.41;4946384;28;1763;-70
2021/06/13 02:50:38;;;;;;;;;;;;;;;26.61;38.68;101302.69;4947883;29;982;-68
2021/06/13 02:53:19;;;;;;;;;;;;;;;26.66;38.72;101306.81;4947410;28;1210;-69
2021/06/13 02:55:51;;;;;;;;;;;;;;;26.61;38.08;101308.03;4947791;28;1077;-70
2021/06/13 02:58:38;;;;;;;;;;;;;;;26.60;38.49;101303.66;4947347;29;1243;-69
2021/06/13 03:01:06;;;;;;;;;;;;;;;26.61;40.02;101302.69;4959971;28;1095;-68
2021/06/13 03:03:33;;;;;;;;;;;;;;;26.57;39.72;101303.91;4947385;28;1907;-69
2021/06/13 03:06:03;;;;;;;;;;;;;;;26.57;39.43;101301.22;4945888;28;1226;-70
2021/06/13 03:08:30;;;;;;;;;;;;;;;26.60;38.64;101308.16;4945789;28;1331;-69
2021/06/13 03:10:57;;;;;;;;;;;;;;;26.58;40.86;101310.97;4947265;28;1465;-69
2021/06/13 03:13:25;;;;;;;;;;;;;;;26.54;39.86;101303.28;4945697;28;1229;-69
2021/06/13 03:15:52;;;;;;;;;;;;;;;26.53;39.47;101302.47;4947464;28;1127;-69
2021/06/13 03:18:20;;;;;;;;;;;;;;;26.49;39.36;101284.97;4947468;28;1312;-69
2021/06/13 03:20:49;;;;;;;;;;;;;;;26.51;39.08;101291.03;4950574;28;1056;-69
2021/06/13 03:23:16;;;;;;;;;;;;;;;26.53;38.98;101294.47;4948604;28;1903;-70
2021/06/13 03:25:44;;;;;;;;;;;;;;;26.52;39.42;101297.25;4950417;28;1142;-69
2021/06/13 03:28:11;;;;;;;;;;;;;;;26.53;38.64;101302.47;4949006;28;1233;-69
2021/06/13 03:30:37;;;;;;;;;;;;;;;26.55;39.60;101291.66;4950649;28;1083;-69
2021/06/13 03:33:06;;;;;;;;;;;;;;;26.57;39.05;101295.88;4949072;28;1270;-69
2021/06/13 03:35:33;;;;;;;;;;;;;;;26.55;39.23;101294.31;4950316;28;1406;-69
2021/06/13 03:38:01;;;;;;;;;;;;;;;26.55;39.66;101300.53;4949482;28;1219;-69
2021/06/13 03:40:29;;;;;;;;;;;;;;;26.58;38.80;101296.75;4949613;28;966;-69
2021/06/13 03:42:56;;;;;;;;;;;;;;;26.61;38.62;101305.34;4950116;28;1316;-68
2021/06/13 03:45:24;;;;;;;;;;;;;;;26.61;39.15;101304.50;4949997;28;1984;-68
2021/06/13 03:47:51;;;;;;;;;;;;;;;26.54;39.67;101309.50;4948639;28;1660;-69
2021/06/13 03:50:18;;;;;;;;;;;;;;;26.48;40.01;101307.31;4949990;28;1048;-69
2021/06/13 03:52:46;;;;;;;;;;;;;;;26.47;41.25;101308.31;4950204;28;1206;-69
2021/06/13 03:55:13;;;;;;;;;;;;;;;26.47;40.28;101310.97;4948515;28;1411;-68
2021/06/13 03:57:45;;;;;;;;;;;;;;;26.49;40.09;101310.84;4949859;28;1216;-69
2021/06/13 04:00:13;;;;;;;;;;;;;;;26.51;39.83;101311.56;4948372;28;1058;-69
2021/06/13 04:02:42;;;;;;;;;;;;;;;26.50;40.18;101309.88;4932129;28;1371;-69
2021/06/13 04:05:10;;;;;;;;;;;;;;;26.48;40.83;101315.34;4932630;28;1964;-71
2021/06/13 04:07:40;;;;;;;;;;;;;;;26.47;39.68;101313.66;4949866;28;1280;-71
2021/06/13 04:10:07;;;;;;;;;;;;;;;26.49;39.24;101314.38;4948303;28;1264;-72
2021/06/13 04:12:35;;;;;;;;;;;;;;;26.50;38.85;101310.75;4949623;28;1344;-68
2021/06/13 04:15:03;;;;;;;;;;;;;;;26.51;39.00;101304.41;4948414;28;1111;-68
2021/06/13 04:17:30;;;;;;;;;;;;;;;26.53;38.85;101302.47;4949598;28;1222;-68
2021/06/13 04:19:57;;;;;;;;;;;;;;;26.51;38.33;101309.75;4949524;28;1127;-69
2021/06/13 04:22:24;;;;;;;;;;;;;;;26.54;38.75;101304.16;4949718;28;1229;-68
2021/06/13 04:24:52;;;;;;;;;;;;;;;26.53;38.56;101297.13;4949535;28;1911;-67
2021/06/13 04:27:21;;;;;;;;;;;;;;;26.53;38.53;101302.47;4950129;28;1221;-67
2021/06/13 04:29:48;;;;;;;;;;;;;;;26.50;38.52;101305.41;4947887;28;1366;-68
2021/06/13 04:32:15;;;;;;;;;;;;;;;26.51;39.61;101293.72;4950223;28;1259;-68
2021/06/13 04:34:42;;;;;;;;;;;;;;;26.51;38.09;101299.06;4949424;28;945;-68
2021/06/13 04:37:09;;;;;;;;;;;;;;;26.53;37.90;101302.47;4949595;28;1300;-67
2021/06/13 04:39:36;;;;;;;;;;;;;;;26.54;37.92;101301.47;4948477;28;779;-67
2021/06/13 04:42:05;;;;;;;;;;;;;;;26.54;37.98;101303.28;4948059;28;1355;-67
2021/06/13 04:44:32;;;;;;;;;;;;;;;26.58;38.24;101305.59;4949196;28;1914;-67
2021/06/13 04:46:59;;;;;;;;;;;;;;;26.61;37.88;101305.34;4949391;28;1239;-68
2021/06/13 04:49:45;;;;;;;;;;;;;;;26.61;37.78;101305.34;4948212;29;804;-67
2021/06/13 04:52:15;;;;;;;;;;;;;;;26.57;38.33;101297.72;4949386;28;1519;-67
2021/06/13 04:54:52;;;;;;;;;;;;;;;26.59;38.00;101295.78;4951384;28;786;-68
2021/06/13 04:57:34;;;;;;;;;;;;;;;26.54;38.76;101298.81;4966935;28;1233;-68
2021/06/13 05:00:01;;;;;;;;;;;;;;;26.53;38.80;101299.81;4958860;28;1186;-68
2021/06/13 05:02:28;;;;;;;;;;;;;;;26.54;39.57;101296.13;4948997;28;1213;-69
2021/06/13 05:04:57;;;;;;;;;;;;;;;26.54;38.60;101296.13;4949059;28;1972;-67
2021/06/13 05:07:25;;;;;;;;;;;;;;;26.59;38.86;101301.13;4948904;28;1221;-67
2021/06/13 05:09:51;;;;;;;;;;;;;;;26.57;38.75;101298.56;4948436;28;1460;-69
2021/06/13 05:12:18;;;;;;;;;;;;;;;26.58;38.76;101296.75;4955139;28;1392;-70
2021/06/13 05:14:45;;;;;;;;;;;;;;;26.59;39.03;101306.47;4964138;28;1444;-70
2021/06/13 05:17:12;;;;;;;;;;;;;;;26.62;41.19;101295.53;4955187;28;1296;-69
2021/06/13 05:19:38;;;;;;;;;;;;;;;26.62;39.42;101295.53;4946329;28;780;-72
2021/06/13 05:22:06;;;;;;;;;;;;;;;26.61;38.96;101293.81;4946071;28;1288;-69
2021/06/13 05:24:34;;;;;;;;;;;;;;;26.60;40.41;101290.28;4947885;28;1906;-68
2021/06/13 05:27:00;;;;;;;;;;;;;;;26.61;41.01;101285.81;4948113;28;1297;-70
2021/06/13 05:29:30;;;;;;;;;;;;;;;26.62;39.57;101295.53;4946079;28;1264;-70
2021/06/13 05:31:57;;;;;;;;;;;;;;;26.66;40.22;101290.78;4946565;28;1496;-67
2021/06/13 05:34:25;;;;;;;;;;;;;;;26.64;40.41;101293.56;4951176;28;1416;-69
2021/06/13 05:36:51;;;;;;;;;;;;;;;26.65;40.66;101281.91;4947991;28;1277;-71
2021/06/13 05:39:18;;;;;;;;;;;;;;;26.67;40.76;101289.78;4946638;28;1080;-70
2021/06/13 05:41:45;;;;;;;;;;;;;;;26.68;40.70;101294.16;4945469;28;1971;-69
2021/06/13 05:44:11;;;;;;;;;;;;;;;26.67;39.35;101295.13;4947417;28;1903;-71
2021/06/13 05:46:39;;;;;;;;;;;;;;;26.66;40.25;101296.97;4947495;28;1516;-69
2021/06/13 05:49:07;;;;;;;;;;;;;;;26.68;38.86;101292.34;4947846;28;825;-70
2021/06/13 05:51:34;;;;;;;;;;;;;;;26.67;39.87;101292.47;4948182;28;1351;-70
2021/06/13 05:54:01;;;;;;;;;;;;;;;26.68;40.99;101291.50;4946712;28;1227;-71
2021/06/13 05:56:28;;;;;;;;;;;;;;;26.65;40.96;101294.41;4946820;28;1325;-70
2021/06/13 05:58:55;;;;;;;;;;;;;;;26.66;40.43;101296.13;4948746;28;1020;-70
2021/06/13 06:01:21;;;;;;;;;;;;;;;26.66;41.82;101298.81;4946681;28;1041;-69
2021/06/13 06:03:48;;;;;;;;;;;;;;;26.66;40.85;101296.13;4947866;28;1907;-70
2021/06/13 06:06:15;;;;;;;;;;;;;;;26.63;41.34;101307.06;4947751;28;1162;-68
2021/06/13 06:08:42;;;;;;;;;;;;;;;26.64;41.52;101301.59;4947526;28;1328;-68
2021/06/13 06:11:09;;;;;;;;;;;;;;;26.65;41.14;101302.44;4951432;28;1551;-68
2021/06/13 06:13:36;;;;;;;;;;;;;;;26.65;41.15;101305.97;4947930;28;1230;-70
2021/06/13 06:16:05;;;;;;;;;;;;;;;26.66;41.70;101301.47;4947605;28;1045;-70
2021/06/13 06:18:32;;;;;;;;;;;;;;;26.66;40.94;101306.81;4947285;28;1324;-69
2021/06/13 06:20:59;;;;;;;;;;;;;;;26.67;42.05;101303.16;4947017;28;950;-69
2021/06/13 06:23:26;;;;;;;;;;;;;;;26.67;41.43;101298.66;4929633;28;1225;-68
2021/06/13 06:25:53;;;;;;;;;;;;;;;26.66;41.73;101296.13;4946638;28;1982;-68
2021/06/13 06:28:20;;;;;;;;;;;;;;;26.65;41.37;101305.09;4947201;28;1239;-67
2021/06/13 06:30:46;;;;;;;;;;;;;;;26.66;41.64;101301.47;4978593;28;1158;-69
2021/06/13 06:33:13;;;;;;;;;;;;;;;26.65;41.41;101308.63;4955344;28;1332;-68
2021/06/13 06:35:40;;;;;;;;;;;;;;;26.67;41.95;101305.81;4982728;28;1377;-71
2021/06/13 06:38:08;;;;;;;;;;;;;;;26.67;41.60;101308.50;5004597;28;1343;-73
2021/06/13 06:40:54;;;;;;;;;;;;;;;26.65;42.16;101308.63;5064544;28;838;-72
2021/06/13 06:43:21;;;;;;;;;;;;;;;26.68;41.94;101310.22;5066616;28;1248;-72
2021/06/13 06:45:48;;;;;;;;;;;;;;;26.66;41.62;101307.66;5051293;28;1972;-72
2021/06/13 06:48:15;;;;;;;;;;;;;;;26.69;41.95;101311.91;4966555;28;1572;-73
2021/06/13 06:50:42;;;;;;;;;;;;;;;26.68;42.03;101307.53;4982735;28;1417;-72
2021/06/13 06:53:09;;;;;;;;;;;;;;;26.70;42.31;101316.25;4985738;28;1229;-71
2021/06/13 06:55:36;;;;;;;;;;;;;;;26.69;42.36;101311.91;4986222;28;1091;-70
2021/06/13 06:58:03;;;;;;;;;;;;;;;26.68;42.56;101310.22;4985684;28;1240;-71
2021/06/13 07:00:30;;;;;;;;;;;;;;;26.69;42.50;101314.59;4985651;28;1201;-70
2021/06/13 07:02:58;;;;;;;;;;;;;;;26.68;42.41;101318.22;4969360;28;1323;-71
2021/06/13 07:05:26;;;;;;;;;;;;;;;26.68;42.67;101321.75;4986577;28;1979;-71
2021/06/13 07:07:53;;;;;;;;;;;;;;;26.69;43.14;101322.59;4985630;28;1231;-72
2021/06/13 07:10:20;;;;;;;;;;;;;;;26.74;43.21;101329.28;4979183;28;1554;-71
2021/06/13 07:12:47;;;;;;;;;;;;;;;26.74;43.11;101323.06;4954990;28;1301;-70
2021/06/13 07:15:14;;;;;;;;;;;;;;;26.73;43.04;101324.03;4948382;28;739;-71
2021/06/13 07:17:41;;;;;;;;;;;;;;;26.76;44.15;101323.78;4948141;28;1233;-73
2021/06/13 07:20:09;;;;;;;;;;;;;;;26.86;42.85;101332.78;4948101;28;917;-69
2021/06/13 07:22:36;;;;;;;;;;;;;;;26.89;41.64;101332.53;4947644;28;1242;-65
2021/06/13 07:25:06;;;;;;;;;;;;;;;26.90;41.49;101334.25;4946166;28;1956;-65
2021/06/13 07:27:33;;;;;;;;;;;;;;;26.88;42.23;101333.50;4949448;28;1328;-65
2021/06/13 07:30:00;;;;;;;;;;;;;;;26.89;42.21;101337.88;4950362;28;972;-69
2021/06/13 07:32:27;;;;;;;;;;;;;;;26.92;41.45;101338.47;4936565;28;1619;-66
2021/06/13 07:34:53;;;;;;;;;;;;;;;26.93;42.46;101342.00;4954371;28;1437;-66
2021/06/13 07:37:20;;;;;;;;;;;;;;;26.99;41.64;101346.84;4950608;28;1263;-70
2021/06/13 07:40:06;;;;;;;;;;;;;;;27.01;40.95;101344.88;4949352;28;1359;-66
2021/06/13 07:42:33;;;;;;;;;;;;;;;26.94;41.95;101349.88;4950267;28;1260;-65
2021/06/13 07:45:00;;;;;;;;;;;;;;;27.00;41.79;101352.06;4950043;28;1887;-62
2021/06/13 07:47:28;;;;;;;;;;;;;;;27.00;42.15;101356.56;4949720;28;1324;-67
2021/06/13 07:49:55;;;;;;;;;;;;;;;26.99;42.52;101362.91;4950180;28;806;-67
2021/06/13 07:52:22;;;;;;;;;;;;;;;27.03;43.68;101358.97;4949876;28;1315;-65
2021/06/13 07:54:49;;;;;;;;;;;;;;;26.97;44.02;101360.34;4949927;28;815;-67
2021/06/13 07:57:15;;;;;;;;;;;;;;;26.94;43.91;101365.94;4985214;28;1402;-69
2021/06/13 07:59:42;;;;;;;;;;;;;;;26.94;44.70;101367.75;4988717;28;724;-66
2021/06/13 08:02:09;;;;;;;;;;;;;;;26.94;44.79;101363.25;4973120;28;1335;-67
2021/06/13 08:04:38;;;;;;;;;;;;;;;26.94;44.79;101357.91;4968512;28;1906;-66
2021/06/13 08:07:05;;;;;;;;;;;;;;;26.95;44.98;101366.78;4981829;28;1356;-68
2021/06/13 08:09:50;;;;;;;;;;;;;;;26.94;44.65;101371.28;4967779;28;1195;-67
2021/06/13 08:12:18;;;;;;;;;;;;;;;27.01;45.25;101374.31;4981850;28;1212;-66
2021/06/13 08:14:45;;;;;;;;;;;;;;;27.01;44.91;101372.47;4988262;28;1135;-66
2021/06/13 08:17:11;;;;;;;;;;;;;;;27.00;44.60;101375.25;4977520;28;1362;-65
2021/06/13 08:19:38;;;;;;;;;;;;;;;26.98;44.50;101377.22;4988036;28;783;-65
2021/06/13 08:22:26;;;;;;;;;;;;;;;26.96;44.62;101363.97;4965509;28;1442;-69
2021/06/13 08:24:53;;;;;;;;;;;;;;;26.99;44.60;101374.41;4959262;28;1923;-68
2021/06/13 08:27:20;;;;;;;;;;;;;;;27.01;44.77;101361.78;4984174;28;1341;-72
2021/06/13 08:29:47;;;;;;;;;;;;;;;27.08;44.16;101364.81;4947096;28;1234;-71
2021/06/13 08:32:13;;;;;;;;;;;;;;;27.11;44.09;101361.88;4963470;28;1347;-72
2021/06/13 08:34:40;;;;;;;;;;;;;;;27.08;44.19;101354.13;4959534;28;1557;-70
2021/06/13 08:37:07;;;;;;;;;;;;;;;27.04;44.52;101358.00;4956390;28;1233;-65
2021/06/13 08:39:34;;;;;;;;;;;;;;;27.07;44.68;101361.28;4952139;28;1155;-68
2021/06/13 08:42:01;;;;;;;;;;;;;;;27.05;44.40;101349.84;4962230;28;1390;-70
2021/06/13 08:44:27;;;;;;;;;;;;;;;27.12;44.70;101355.53;4969943;28;1972;-71
2021/06/13 08:46:56;;;;;;;;;;;;;;;27.16;44.26;101354.31;4965833;28;1367;-70
2021/06/13 08:49:23;;;;;;;;;;;;;;;27.20;44.85;101357.59;4965717;28;1335;-69
2021/06/13 08:51:50;;;;;;;;;;;;;;;27.19;44.55;101361.22;4966349;28;1285;-71
2021/06/13 08:54:17;;;;;;;;;;;;;;;27.20;44.53;101358.44;4978171;28;1110;-67
2021/06/13 08:56:44;;;;;;;;;;;;;;;27.23;45.17;101366.22;4951983;28;1272;-72
2021/06/13 08:59:12;;;;;;;;;;;;;;;27.27;45.10;101366.81;5033491;28;1309;-74
2021/06/13 09:01:39;;;;;;;;;;;;;;;27.22;44.14;101361.84;5068338;28;1435;-72
2021/06/13 09:04:06;;;;;;;;;;;;;;;27.27;45.55;101364.13;4976491;28;1225;-72
2021/06/13 09:06:33;;;;;;;;;;;;;;;27.32;44.85;101359.25;4953771;28;1966;-71
2021/06/13 09:09:00;;;;;;;;;;;;;;;27.35;44.31;101353.63;4974034;28;1159;-73
2021/06/13 09:11:28;;;;;;;;;;;;;;;27.29;43.65;101363.03;4986064;28;1325;-72
2021/06/13 09:14:15;;;;;;;;;;;;;;;27.29;43.69;101364.84;4976890;28;1155;-72
2021/06/13 09:16:43;;;;;;;;;;;;;;;27.31;43.57;101363.75;4968830;28;1344;-71
2021/06/13 09:19:10;;;;;;;;;;;;;;;27.32;43.75;101364.59;4980517;28;1015;-71
2021/06/13 09:21:39;;;;;;;;;;;;;;;27.28;43.99;101358.66;4966079;28;1307;-71
2021/06/13 09:24:22;;;;;;;;;;;;;;;27.27;46.74;101364.13;4968177;28;1176;-72
2021/06/13 09:26:51;;;;;;;;;;;;;;;27.28;45.49;101347.94;4967771;28;1918;-73
2021/06/13 09:29:17;;;;;;;;;;;;;;;27.30;44.66;101359.34;4973903;28;1303;-71
2021/06/13 09:31:45;;;;;;;;;;;;;;;27.27;45.04;101356.13;4966678;28;2088;-72
2021/06/13 09:34:19;;;;;;;;;;;;;;;27.30;45.89;101356.69;4964230;28;1193;-72
2021/06/13 09:36:46;;;;;;;;;;;;;;;27.38;46.22;101353.38;4966487;28;1339;-70
2021/06/13 09:39:14;;;;;;;;;;;;;;;27.36;45.44;101356.16;4961012;28;1200;-73
2021/06/13 09:41:45;;;;;;;;;;;;;;;27.28;45.78;101358.66;4954492;28;1247;-71
2021/06/13 09:44:14;;;;;;;;;;;;;;;27.28;45.02;101357.78;4991164;28;1296;-70
2021/06/13 09:46:42;;;;;;;;;;;;;;;27.26;44.76;101355.25;5009883;28;1910;-67
2021/06/13 09:49:09;;;;;;;;;;;;;;;27.28;44.60;101355.13;4965054;28;1247;-71
2021/06/13 09:51:39;;;;;;;;;;;;;;;27.24;44.90;101356.38;4964877;28;1312;-70
2021/06/13 09:54:26;;;;;;;;;;;;;;;27.27;44.39;101343.56;4966288;28;1087;-73
2021/06/13 09:56:54;;;;;;;;;;;;;;;27.26;44.88;101344.56;4964446;28;1264;-74
2021/06/13 09:59:24;;;;;;;;;;;;;;;27.30;44.40;101340.63;4966291;28;831;-70
2021/06/13 10:01:56;;;;;;;;;;;;;;;27.34;44.58;101342.09;4956376;28;1245;-70
2021/06/13 10:04:26;;;;;;;;;;;;;;;27.33;43.78;101348.41;4955783;28;1241;-69
2021/06/13 10:07:13;;;;;;;;;;;;;;;27.30;44.14;101339.81;4954356;28;2009;-69
2021/06/13 10:09:40;;;;;;;;;;;;;;;27.31;44.32;101347.69;4979394;28;1603;-69
2021/06/13 10:12:27;;;;;;;;;;;;;;;27.32;44.24;101344.03;4956808;28;1487;-68
2021/06/13 10:14:54;;;;;;;;;;;;;;;27.31;44.33;101336.13;4941656;28;1387;-69
2021/06/13 10:17:31;;;;;;;;;;;;;;;27.30;44.40;101340.63;4955391;28;1272;-71
2021/06/13 10:19:58;;;;;;;;;;;;;;;27.31;44.40;101334.31;4953694;28;1201;-70
2021/06/13 10:22:25;;;;;;;;;;;;;;;27.30;44.72;101334.47;4955199;28;1381;-71
2021/06/13 10:24:54;;;;;;;;;;;;;;;27.32;44.13;101332.50;4953038;28;1980;-69
2021/06/13 10:27:21;;;;;;;;;;;;;;;27.37;44.02;101324.91;4953960;28;1388;-72
2021/06/13 10:29:49;;;;;;;;;;;;;;;27.35;44.21;101327.75;4957870;28;1146;-73
2021/06/13 10:32:20;;;;;;;;;;;;;;;27.35;44.34;101319.72;4959509;28;1378;-74
2021/06/13 10:34:49;;;;;;;;;;;;;;;27.34;44.36;101331.38;4959105;28;1222;-73
2021/06/13 10:37:16;;;;;;;;;;;;;;;27.33;44.63;101327.00;4959996;28;1230;-71
2021/06/13 10:39:44;;;;;;;;;;;;;;;27.33;44.15;101335.03;4958381;28;1194;-72
2021/06/13 10:42:14;;;;;;;;;;;;;;;27.32;44.19;101328.00;4957739;28;1347;-70
2021/06/13 10:44:46;;;;;;;;;;;;;;;27.32;44.05;101333.34;4958806;28;1292;-70
2021/06/13 10:47:13;;;;;;;;;;;;;;;27.35;43.69;101329.56;4942355;28;2015;-72
2021/06/13 10:49:42;;;;;;;;;;;;;;;27.38;43.84;101335.50;4958257;28;1248;-73
2021/06/13 10:52:12;;;;;;;;;;;;;;;27.39;44.16;101339.03;4959310;28;1280;-74
2021/06/13 10:54:51;;;;;;;;;;;;;;;27.34;44.39;101338.56;4958244;28;1139;-71
2021/06/13 10:57:18;;;;;;;;;;;;;;;27.37;43.77;101336.47;4943176;28;1325;-71
2021/06/13 10:59:49;;;;;;;;;;;;;;;27.46;43.30;101343.75;4957758;28;1249;-69
2021/06/13 11:02:24;;;;;;;;;;;;;;;27.47;43.19;101348.13;4958156;28;1370;-72
2021/06/13 11:05:03;;;;;;;;;;;;;;;27.38;43.76;101340.84;4959246;28;1253;-68
2021/06/13 11:07:31;;;;;;;;;;;;;;;27.39;44.05;101337.19;4972739;28;1332;-71
2021/06/13 11:10:18;;;;;;;;;;;;;;;27.44;44.17;101344.88;4957174;28;1225;-73
2021/06/13 11:12:59;;;;;;;;;;;;;;;27.42;43.92;101346.81;4958359;28;1291;-72
2021/06/13 11:15:40;;;;;;;;;;;;;;;27.45;44.19;101347.41;4957086;28;1332;-74
2021/06/13 11:18:29;;;;;;;;;;;;;;;27.39;44.50;101342.53;4958601;28;1724;-78
2021/06/13 11:21:16;;;;;;;;;;;;;;;27.48;44.87;101340.97;4960943;28;1468;-70
2021/06/13 11:23:43;;;;;;;;;;;;;;;27.38;44.86;101343.53;4955218;28;1379;-71
2021/06/13 11:26:30;;;;;;;;;;;;;;;27.32;45.04;101341.38;4956864;28;1911;-73
2021/06/13 11:28:57;;;;;;;;;;;;;;;27.26;44.91;101341.03;4982754;28;1164;-69
2021/06/13 11:31:24;;;;;;;;;;;;;;;27.20;44.60;101347.75;4962968;28;1363;-69
2021/06/13 11:33:55;;;;;;;;;;;;;;;27.16;43.83;101348.97;4957305;28;1280;-68
2021/06/13 11:36:51;;;;;;;;;;;;;;;27.10;43.90;101346.81;4967855;28;1280;-71
2021/06/13 11:39:18;;;;;;;;;;;;;;;26.98;44.11;101339.78;4975807;28;1445;-71
2021/06/13 11:41:47;;;;;;;;;;;;;;;26.91;43.53;101338.59;4956664;28;1277;-69
2021/06/13 11:44:20;;;;;;;;;;;;;;;26.86;43.22;101340.81;4961504;28;1231;-68
2021/06/13 11:46:48;;;;;;;;;;;;;;;26.85;43.46;101334.59;4955977;28;1914;-68
2021/06/13 11:49:18;;;;;;;;;;;;;;;26.83;43.17;101347.25;4957063;28;1274;-68
2021/06/13 11:51:53;;;;;;;;;;;;;;;26.78;42.96;101340.56;4956154;28;1275;-69
2021/06/13 11:54:29;;;;;;;;;;;;;;;26.73;42.67;101343.59;4944291;28;1297;-72
2021/06/13 11:56:57;;;;;;;;;;;;;;;26.73;42.71;101342.75;4956052;28;1383;-72
2021/06/13 11:59:25;;;;;;;;;;;;;;;26.70;42.88;101334.97;4956299;28;1146;-70
2021/06/13 12:01:57;;;;;;;;;;;;;;;26.70;42.76;101341.16;4964358;28;1379;-72
2021/06/13 12:04:32;;;;;;;;;;;;;;;26.67;42.52;101341.41;4955280;28;1486;-73
2021/06/13 12:07:21;;;;;;;;;;;;;;;26.65;42.36;101346.03;4955474;28;1907;-70
2021/06/13 12:09:55;;;;;;;;;;;;;;;26.61;42.44;101342.78;4955657;28;1154;-71
2021/06/13 12:12:41;;;;;;;;;;;;;;;26.65;43.08;101345.19;4956209;28;1593;-69
2021/06/13 12:15:17;;;;;;;;;;;;;;;26.58;41.98;101337.66;4956589;28;1114;-72
2021/06/13 12:17:47;;;;;;;;;;;;;;;26.56;41.89;101341.44;4956225;28;1378;-69
2021/06/13 12:20:22;;;;;;;;;;;;;;;26.54;42.27;101332.69;4956438;28;1177;-67
2021/06/13 12:28:14;;;;;;;;;;;;;;;26.50;41.78;101340.13;4958615;28;1304;-70
2021/06/13 12:31:01;;;;;;;;;;;;;;;26.48;41.56;101336.72;4954674;28;1245;-72
2021/06/13 12:33:48;;;;;;;;;;;;;;;26.46;41.74;101337.81;4956599;28;1754;-70
2021/06/13 12:36:21;;;;;;;;;;;;;;;26.48;41.49;101342.03;4961305;28;1669;-70
2021/06/13 12:38:52;;;;;;;;;;;;;;;26.43;41.61;101333.56;4956652;28;1629;-70
2021/06/13 12:41:22;;;;;;;;;;;;;;;26.43;41.88;101333.56;4957113;28;1308;-70
2021/06/13 12:43:55;;;;;;;;;;;;;;;26.40;41.41;101333.81;4958261;28;1253;-72
2021/06/13 12:46:23;;;;;;;;;;;;;;;26.37;41.67;101320.69;4955642;28;1898;-71
2021/06/13 12:48:55;;;;;;;;;;;;;;;26.41;40.88;101323.97;4962510;28;1228;-72
2021/06/13 12:51:43;;;;;;;;;;;;;;;26.39;40.72;101324.09;4961021;28;1411;-71
2021/06/13 12:54:16;;;;;;;;;;;;;;;26.42;40.71;101323.00;4956471;28;1258;-73
2021/06/13 12:56:48;;;;;;;;;;;;;;;26.40;40.78;101331.13;4955538;28;1458;-68
2021/06/13 12:59:15;;;;;;;;;;;;;;;26.36;41.06;101331.50;4957402;28;1118;-68
2021/06/13 13:01:42;;;;;;;;;;;;;;;26.37;41.65;101327.84;4954945;28;1615;-68
2021/06/13 13:04:10;;;;;;;;;;;;;;;26.39;42.49;101321.41;4957388;28;1269;-71
2021/06/13 13:06:53;;;;;;;;;;;;;;;26.39;42.67;101324.09;4941868;28;1977;-73